Gillette, WY

5:44 AM MDT on September 22, 2014 (GMT -0600)
Johnson County | Change Station
CLOSE
Current Station
Airport
Location: Buffalo,
Elevation: 4967 ft
Nearby Weather Stations

Elev 4967 ft 44.38 °N, 106.72 °W | Updated 51 minutes ago

Mostly Cloudy
Mostly Cloudy
57 °F
Feels Like 57 °F
N
6
Wind Variable Wind from ESE

Today
High -- | Low -- °F
--% Chance of Precip.
Yesterday
High -- | Low -- °F
Precip. -- in
6:49 AM 7:00 PM
Waning Crescent, 3% visible
Pressure 29.93 in
Visibility 10.0 miles
Clouds Clear
Dew Point 43 °F
Humidity 59%
Rainfall 0.00 in
Snow Depth 0 in , 0 in , 0 in
UV 0 out of 12
Pollen 4.70 out of 12
Air Quality Not available.
Flu Activity Not available.
METAR KBYG 221053Z AUTO 12005KT 10SM CLR 14/06 A3008 RMK AO2 SLP135 T01390061

More Conditions Fewer Conditions

Pressure 29.93 in
Visibility 10.0 miles
Clouds Clear
Dew Point 43 °F
Humidity 59%
Rainfall 0.00 in
Snow Depth 0 in , 0 in , 0 in
UV 0 out of 12
Pollen 4.70 out of 12
Air Quality Not available.
Flu Activity Not available.
METAR KBYG 221053Z AUTO 12005KT 10SM CLR 14/06 A3008 RMK AO2 SLP135 T01390061

More Conditions Fewer Conditions

10-Day Weather Forecast

Almanac

Astronomy

Sep. 22, 2014 Rise Set
Actual Time 6:49 AM MDT 7:00 PM MDT
Civil Twilight 6:20 AM MDT 7:29 PM MDT
Nautical Twilight 5:46 AM MDT 8:03 PM MDT
Astronomical Twilight 5:11 AM MDT 8:38 PM MDT
Moon 5:18 AM MDT 6:10 PM MDT
Length of Visible Light 13h 08m
Length of Day
12h 10m
Tomorrow will be 3m 4s shorter.
Waning Crescent, 3% of the Moon is Illuminated
Today
Waning Crescent
Sep 24
New
Oct 1
First Quarter
Oct 8
Full
Oct 15
Last Quarter

Today's Extremes

State Highs State Lows

Community

WunderPhotos

Upload Photos

1,755,409 photos uploaded!

Nearby

Snow Depth

Station Depth Elevation
Thumb Divide 0 in 7980 ft
Phillips Bench 0 in 8200 ft
Salt River Summit 0 in 7600 ft
Sylvan Lake 0 in 8420 ft
Brooklyn Lake 0 in 10220 ft

Earthquake Activity

City Distance Mag. Time & Date
No recent earthquake activity has been reported nearby.
Minimum magnitude displayed is 2.5.

Coastal Water Temperatures

Place Temperature
No Stations Reporting

Nearby Weather Stations